Time;durP1;ratioP1;P1;durP2;ratioP2;P2;SDS_P1;SDS_P2;PMS_P1;PMS_P2;Temp;Humidity;BMP_temperature;BMP_pressure;BME280_temperature;BME280_humidity;BME280_pressure;Samples;Min_cycle;Max_cycle;Signal;HPM_P1;HPM_P2
2022/06/27 00:00:27;;;;;;;3.08;1.33;;;24.60;85.00;;;;;;5005756;28;20454;-63
2022/06/27 00:02:52;;;;;;;2.38;1.10;;;24.40;86.70;;;;;;4994746;28;20038;-62
2022/06/27 00:05:18;;;;;;;1.52;1.30;;;24.20;88.40;;;;;;5006235;28;20029;-62
2022/06/27 00:07:44;;;;;;;1.90;1.50;;;24.00;90.50;;;;;;5004680;28;20057;-64
2022/06/27 00:10:10;;;;;;;3.83;1.92;;;23.70;91.90;;;;;;5005237;28;20049;-63
2022/06/27 00:12:37;;;;;;;3.40;1.75;;;23.40;93.90;;;;;;5005145;28;20124;-63
2022/06/27 00:15:04;;;;;;;4.03;1.90;;;23.20;95.00;;;;;;5007145;28;20034;-63
2022/06/27 00:17:30;;;;;;;4.15;2.10;;;23.00;95.90;;;;;;5003987;28;20239;-63
2022/06/27 00:19:56;;;;;;;2.50;1.92;;;22.80;96.80;;;;;;5005789;28;20030;-62
2022/06/27 00:22:22;;;;;;;5.63;2.53;;;22.70;97.70;;;;;;5004778;28;20034;-62
2022/06/27 00:24:48;;;;;;;7.03;3.03;;;22.40;99.80;;;;;;5006212;28;20086;-62
2022/06/27 00:27:13;;;;;;;5.18;3.28;;;22.10;99.90;;;;;;4994270;28;20038;-62
2022/06/27 00:29:40;;;;;;;4.60;4.10;;;21.80;99.90;;;;;;4992897;28;20572;-63
2022/06/27 00:32:07;;;;;;;8.23;4.53;;;21.50;99.90;;;;;;5004531;28;20105;-62
2022/06/27 00:34:33;;;;;;;8.18;5.20;;;21.30;99.90;;;;;;5008724;28;20040;-63
2022/06/27 00:36:59;;;;;;;10.20;5.22;;;21.10;99.90;;;;;;5026323;28;20033;-63
2022/06/27 00:39:24;;;;;;;9.63;5.45;;;20.90;99.90;;;;;;5014466;28;20045;-63
2022/06/27 00:41:50;;;;;;;9.25;7.20;;;20.80;99.90;;;;;;5029613;28;20497;-62
2022/06/27 00:44:47;;;;;;;11.60;7.38;;;20.50;99.90;;;;;;5005165;28;20026;-62
2022/06/27 00:47:13;;;;;;;13.75;8.35;;;20.20;99.90;;;;;;5005578;28;20041;-63
2022/06/27 00:49:39;;;;;;;11.07;8.02;;;20.00;99.90;;;;;;5005751;28;20049;-62
2022/06/27 00:52:07;;;;;;;12.27;7.78;;;19.80;99.90;;;;;;4987777;28;20405;-65
2022/06/27 00:54:35;;;;;;;10.50;7.35;;;19.70;99.90;;;;;;5003377;28;20022;-62
2022/06/27 00:57:01;;;;;;;10.40;7.38;;;19.70;99.90;;;;;;5006239;28;20497;-62
2022/06/27 00:59:26;;;;;;;9.82;7.50;;;19.60;99.90;;;;;;5004129;28;20038;-62
2022/06/27 01:01:52;;;;;;;8.98;6.35;;;19.60;99.90;;;;;;4990547;28;20489;-62
2022/06/27 01:04:18;;;;;;;6.82;5.38;;;19.60;99.90;;;;;;4995705;28;20462;-62
2022/06/27 01:06:44;;;;;;;20.35;6.07;;;19.50;99.90;;;;;;5007057;28;20049;-63
2022/06/27 01:09:09;;;;;;;7.78;5.32;;;19.40;99.90;;;;;;5006365;28;20202;-62
2022/06/27 01:11:35;;;;;;;9.05;5.25;;;19.20;99.90;;;;;;5004291;28;20684;-63
2022/06/27 01:14:01;;;;;;;20.40;5.85;;;19.20;99.90;;;;;;4998360;28;20088;-62
2022/06/27 01:16:27;;;;;;;15.63;6.00;;;19.10;99.90;;;;;;5003573;28;20022;-62
2022/06/27 01:18:53;;;;;;;12.45;5.07;;;19.00;99.90;;;;;;5003499;28;20033;-63
2022/06/27 01:21:21;;;;;;;8.38;4.30;;;18.90;99.90;;;;;;5014588;28;20037;-62
2022/06/27 01:23:48;;;;;;;8.68;4.25;;;18.70;99.90;;;;;;5003859;28;20135;-66
2022/06/27 01:26:14;;;;;;;9.45;5.00;;;18.50;99.90;;;;;;4997798;28;20033;-64
2022/06/27 01:28:39;;;;;;;12.07;3.50;;;18.40;99.90;;;;;;5004413;28;20030;-66
2022/06/27 01:31:05;;;;;;;8.00;2.50;;;18.30;99.90;;;;;;5011226;28;20443;-61
2022/06/27 01:33:31;;;;;;;5.38;1.83;;;18.10;99.90;;;;;;5028117;28;20113;-65
2022/06/27 01:38:42;;;;;;;6.25;2.00;;;17.60;99.90;;;;;;4990517;28;20048;-63
2022/06/27 01:41:07;;;;;;;4.35;1.63;;;17.50;99.90;;;;;;5006632;28;20054;-63
2022/06/27 01:43:34;;;;;;;4.80;1.60;;;17.40;99.90;;;;;;5006987;28;20060;-62
2022/06/27 01:46:00;;;;;;;7.28;1.73;;;17.40;99.90;;;;;;5002161;28;20038;-62
2022/06/27 01:48:28;;;;;;;9.80;1.92;;;17.50;99.90;;;;;;5006499;28;20045;-62
2022/06/27 01:50:57;;;;;;;5.47;1.45;;;17.60;99.90;;;;;;5010163;28;20041;-62
2022/06/27 01:53:25;;;;;;;6.88;1.50;;;17.70;99.90;;;;;;4991257;28;20382;-62
2022/06/27 01:55:51;;;;;;;5.00;1.45;;;17.50;99.90;;;;;;5008707;28;20113;-62
2022/06/27 01:58:17;;;;;;;5.45;1.45;;;17.50;99.90;;;;;;5006735;28;20029;-62
2022/06/27 02:00:43;;;;;;;2.17;1.20;;;17.50;99.90;;;;;;5006251;28;20109;-62
2022/06/27 02:03:09;;;;;;;3.40;1.30;;;17.40;99.90;;;;;;5012684;28;20598;-63
2022/06/27 02:05:35;;;;;;;4.13;1.13;;;17.40;99.90;;;;;;5032059;28;20034;-62
2022/06/27 02:08:02;;;;;;;5.38;0.90;;;17.40;99.90;;;;;;5007070;28;20101;-64
2022/06/27 02:10:28;;;;;;;2.97;1.00;;;17.40;99.90;;;;;;5008183;28;20120;-64
2022/06/27 02:12:54;;;;;;;2.50;1.15;;;17.50;99.90;;;;;;5007129;28;21684;-63
2022/06/27 02:15:19;;;;;;;5.28;1.23;;;17.50;99.90;;;;;;5007859;28;20034;-63
2022/06/27 02:17:45;;;;;;;5.35;1.13;;;17.50;99.90;;;;;;5008400;28;20068;-67
2022/06/27 02:20:11;;;;;;;3.10;0.98;;;17.50;99.90;;;;;;5034466;28;20034;-66
2022/06/27 02:22:36;;;;;;;1.80;1.10;;;17.30;99.90;;;;;;5006791;28;20030;-65
2022/06/27 02:25:03;;;;;;;2.95;1.17;;;17.10;99.90;;;;;;5008491;28;20530;-64
2022/06/27 02:27:30;;;;;;;7.22;1.20;;;17.10;99.90;;;;;;5006333;28;20030;-65
2022/06/27 02:29:56;;;;;;;6.03;0.98;;;17.20;99.90;;;;;;5007071;28;20037;-65
2022/06/27 02:32:22;;;;;;;3.25;0.95;;;17.30;99.90;;;;;;5007068;28;20121;-63
2022/06/27 02:34:50;;;;;;;3.17;1.25;;;17.30;99.90;;;;;;5012891;28;20060;-64
2022/06/27 02:37:17;;;;;;;2.22;1.15;;;17.30;99.90;;;;;;5003435;28;20026;-64
2022/06/27 02:39:45;;;;;;;4.80;1.00;;;17.30;99.90;;;;;;5005212;28;20622;-65
2022/06/27 02:42:13;;;;;;;3.28;1.30;;;17.30;99.90;;;;;;5084563;28;20095;-64
2022/06/27 02:44:39;;;;;;;1.58;1.10;;;17.30;99.90;;;;;;5077436;28;20034;-65
2022/06/27 02:47:06;;;;;;;3.15;0.95;;;17.40;99.90;;;;;;5022241;28;20527;-65
2022/06/27 02:49:32;;;;;;;2.78;1.10;;;17.50;99.90;;;;;;5008031;28;20075;-65
2022/06/27 02:52:15;;;;;;;1.42;1.15;;;17.50;99.90;;;;;;5011245;28;20074;-64
2022/06/27 02:54:49;;;;;;;2.63;0.98;;;17.50;99.90;;;;;;5002169;28;20119;-64
2022/06/27 02:57:25;;;;;;;4.28;1.17;;;17.40;99.90;;;;;;5041483;28;20359;-64
2022/06/27 02:59:54;;;;;;;2.53;1.20;;;17.30;99.90;;;;;;5002736;28;20062;-65
2022/06/27 03:02:21;;;;;;;2.88;1.23;;;17.30;99.90;;;;;;5011977;28;20042;-65
2022/06/27 03:04:47;;;;;;;2.75;1.10;;;17.40;99.90;;;;;;5019738;28;20022;-64
2022/06/27 03:07:12;;;;;;;2.80;1.35;;;17.50;99.90;;;;;;5080155;28;20050;-64
2022/06/27 03:09:38;;;;;;;3.25;1.20;;;17.40;99.90;;;;;;5005936;28;20050;-64
2022/06/27 03:12:04;;;;;;;4.28;1.17;;;17.40;99.90;;;;;;5006548;28;20030;-64
2022/06/27 03:14:30;;;;;;;3.25;1.13;;;17.40;99.90;;;;;;5006758;28;20509;-65
2022/06/27 03:16:55;;;;;;;2.80;1.30;;;17.40;99.90;;;;;;5005038;28;20033;-65
2022/06/27 03:19:21;;;;;;;2.92;1.30;;;17.40;99.90;;;;;;5006935;28;20057;-63
2022/06/27 03:21:47;;;;;;;8.07;1.30;;;17.40;99.90;;;;;;5066477;28;20077;-64
2022/06/27 03:24:12;;;;;;;2.63;1.58;;;17.30;99.90;;;;;;5111132;28;20028;-65
2022/06/27 03:26:38;;;;;;;3.53;1.30;;;17.30;99.90;;;;;;5011622;28;20049;-65
2022/06/27 03:29:04;;;;;;;2.40;1.30;;;17.20;99.90;;;;;;5006089;28;20042;-63
2022/06/27 03:31:30;;;;;;;3.05;1.25;;;17.10;99.90;;;;;;5005000;28;20061;-64
2022/06/27 03:33:56;;;;;;;2.58;1.15;;;17.10;99.90;;;;;;5005240;28;20033;-64
2022/06/27 03:36:21;;;;;;;2.42;1.30;;;17.10;99.90;;;;;;5054511;28;20392;-64
2022/06/27 03:38:47;;;;;;;3.38;1.50;;;17.20;99.90;;;;;;5071984;28;20039;-65
2022/06/27 03:41:13;;;;;;;2.10;1.20;;;17.20;99.90;;;;;;5070112;28;20041;-65
2022/06/27 03:43:38;;;;;;;3.28;1.20;;;17.20;99.90;;;;;;5006948;28;20030;-65
2022/06/27 03:46:04;;;;;;;2.05;1.30;;;17.30;99.90;;;;;;5005619;28;20034;-65
2022/06/27 03:51:14;;;;;;;98.97;2.83;;;17.30;99.90;;;;;;5005277;28;20099;-65
2022/06/27 03:53:39;;;;;;;4.53;1.67;;;17.40;99.90;;;;;;5004628;28;20091;-64
2022/06/27 03:56:05;;;;;;;2.72;1.30;;;17.30;99.90;;;;;;5007026;28;20321;-65
2022/06/27 03:58:31;;;;;;;2.63;1.27;;;17.30;99.90;;;;;;5011236;28;20033;-66
2022/06/27 04:00:57;;;;;;;5.45;1.40;;;17.30;99.90;;;;;;5024278;28;20034;-65
2022/06/27 04:03:23;;;;;;;1.65;1.20;;;17.40;99.90;;;;;;5081385;28;20073;-65
2022/06/27 04:05:49;;;;;;;2.92;1.10;;;17.40;99.90;;;;;;4995004;28;20029;-65
2022/06/27 04:08:15;;;;;;;2.67;1.27;;;17.50;99.90;;;;;;5008659;28;20050;-65
2022/06/27 04:10:40;;;;;;;2.80;1.30;;;17.50;99.90;;;;;;5104991;28;20531;-65
2022/06/27 04:13:06;;;;;;;6.88;1.65;;;17.40;99.90;;;;;;5021053;28;20466;-66
2022/06/27 04:15:32;;;;;;;9.82;1.50;;;17.40;99.90;;;;;;5005976;28;20033;-65
2022/06/27 04:17:57;;;;;;;3.25;1.42;;;17.40;99.90;;;;;;5006794;28;20074;-65
2022/06/27 04:20:24;;;;;;;2.45;1.58;;;17.30;99.90;;;;;;5006771;28;20058;-63
2022/06/27 04:22:50;;;;;;;3.00;1.38;;;17.40;99.90;;;;;;4987788;28;20072;-63
2022/06/27 04:25:15;;;;;;;1.40;1.00;;;17.30;99.90;;;;;;5077848;28;20466;-64
2022/06/27 04:27:41;;;;;;;1.92;1.13;;;17.40;99.90;;;;;;5006708;28;20083;-65
2022/06/27 04:30:09;;;;;;;5.18;1.30;;;17.40;99.90;;;;;;4986981;28;20031;-65
2022/06/27 04:32:35;;;;;;;4.70;1.70;;;17.50;99.90;;;;;;4992328;28;20042;-65
2022/06/27 04:35:01;;;;;;;4.78;1.48;;;17.70;99.90;;;;;;5006376;28;20034;-65
2022/06/27 04:37:27;;;;;;;3.00;1.52;;;17.70;99.90;;;;;;5005649;28;20069;-63
2022/06/27 04:39:53;;;;;;;3.65;1.40;;;17.70;99.90;;;;;;5087239;28;20136;-65
2022/06/27 04:42:20;;;;;;;2.90;1.38;;;17.60;99.90;;;;;;5109095;28;20023;-65
2022/06/27 04:44:45;;;;;;;2.17;1.45;;;17.60;99.90;;;;;;5108296;28;20379;-65
2022/06/27 04:47:13;;;;;;;3.38;1.52;;;17.70;99.90;;;;;;5107895;28;20027;-65
2022/06/27 04:49:40;;;;;;;8.50;1.85;;;17.70;99.90;;;;;;5108494;28;20164;-66
2022/06/27 04:52:07;;;;;;;4.15;1.67;;;17.80;99.90;;;;;;5109170;28;20036;-65
2022/06/27 04:54:34;;;;;;;7.78;2.47;;;17.80;99.90;;;;;;5059684;28;20147;-65
2022/06/27 04:57:00;;;;;;;3.35;1.77;;;18.00;99.90;;;;;;4986740;28;20438;-65
2022/06/27 04:59:26;;;;;;;4.55;2.33;;;18.10;99.90;;;;;;4986428;28;20030;-65
2022/06/27 05:01:51;;;;;;;4.63;1.90;;;18.20;99.90;;;;;;4985681;28;20030;-66
2022/06/27 05:04:18;;;;;;;8.32;1.90;;;18.40;99.90;;;;;;4986394;28;20477;-65
2022/06/27 05:06:45;;;;;;;4.10;2.03;;;18.50;99.90;;;;;;4985610;28;20050;-66
2022/06/27 05:09:11;;;;;;;5.57;1.80;;;18.50;99.90;;;;;;4992731;28;20053;-65
2022/06/27 05:11:36;;;;;;;4.60;2.10;;;18.70;99.90;;;;;;5047743;28;20024;-65
2022/06/27 05:14:02;;;;;;;3.70;2.10;;;18.80;99.90;;;;;;5005949;28;20375;-65
2022/06/27 05:16:28;;;;;;;4.90;1.70;;;18.80;99.90;;;;;;5005446;28;20041;-65
2022/06/27 05:18:53;;;;;;;3.95;1.80;;;18.90;99.90;;;;;;5004622;28;20034;-66
2022/06/27 05:21:19;;;;;;;3.55;2.03;;;18.90;99.90;;;;;;5003862;28;20030;-65
2022/06/27 05:23:45;;;;;;;5.32;2.50;;;18.80;99.90;;;;;;4985599;28;20070;-65
2022/06/27 05:26:10;;;;;;;6.05;2.65;;;18.70;99.90;;;;;;5007979;28;20786;-65
2022/06/27 05:28:36;;;;;;;5.50;2.65;;;18.60;99.90;;;;;;5089907;28;20034;-65
2022/06/27 05:31:02;;;;;;;5.03;2.75;;;18.60;99.90;;;;;;5005816;28;20569;-67
2022/06/27 05:33:27;;;;;;;4.47;2.47;;;18.60;99.90;;;;;;5062028;28;20105;-65
2022/06/27 05:35:53;;;;;;;5.47;2.40;;;18.70;99.90;;;;;;4996515;28;20106;-65
2022/06/27 05:38:20;;;;;;;8.98;2.80;;;18.70;99.90;;;;;;5003842;28;20038;-65
2022/06/27 05:40:46;;;;;;;4.13;2.65;;;18.70;99.90;;;;;;5005470;28;20034;-66
2022/06/27 05:43:14;;;;;;;4.90;2.55;;;18.80;99.90;;;;;;5021588;28;20023;-65
2022/06/27 05:45:40;;;;;;;5.30;2.22;;;18.90;99.90;;;;;;5013459;28;20048;-64
2022/06/27 05:48:07;;;;;;;5.35;2.65;;;19.00;99.90;;;;;;4996745;28;20065;-64
2022/06/27 05:50:33;;;;;;;3.60;2.45;;;19.20;99.90;;;;;;4997119;28;20057;-66
2022/06/27 05:53:01;;;;;;;4.90;2.00;;;19.50;99.90;;;;;;5006145;28;20026;-64
2022/06/27 05:55:28;;;;;;;3.50;2.20;;;19.60;99.90;;;;;;4995139;28;20401;-64
2022/06/27 05:57:58;;;;;;;4.90;1.98;;;19.70;99.90;;;;;;5001399;28;20205;-65
2022/06/27 06:00:24;;;;;;;4.63;2.10;;;19.90;99.90;;;;;;4997563;28;20030;-66
2022/06/27 06:02:50;;;;;;;1.85;1.52;;;19.80;99.90;;;;;;4988105;28;20034;-65
2022/06/27 06:05:17;;;;;;;3.35;1.83;;;19.70;99.90;;;;;;4998542;28;20031;-64
2022/06/27 06:07:43;;;;;;;4.43;1.63;;;19.60;99.90;;;;;;4984597;28;20050;-64
2022/06/27 06:10:10;;;;;;;3.42;1.50;;;19.70;99.90;;;;;;4990042;28;20042;-64
2022/06/27 06:12:36;;;;;;;2.45;1.08;;;19.80;99.90;;;;;;5004395;28;20022;-67
2022/06/27 06:15:03;;;;;;;4.60;1.80;;;20.00;99.90;;;;;;5005278;28;20037;-64
2022/06/27 06:17:31;;;;;;;4.32;1.40;;;20.30;99.90;;;;;;5005302;28;20026;-64
2022/06/27 06:19:57;;;;;;;3.05;1.75;;;20.40;99.90;;;;;;5003620;28;20034;-65
2022/06/27 06:22:23;;;;;;;3.65;1.90;;;20.60;99.90;;;;;;5005274;28;20105;-65
2022/06/27 06:24:49;;;;;;;4.22;1.90;;;20.70;99.90;;;;;;5004377;28;20098;-64
2022/06/27 06:27:16;;;;;;;6.72;1.73;;;20.70;99.90;;;;;;5004154;28;20037;-65
2022/06/27 06:29:43;;;;;;;3.08;1.98;;;20.50;99.90;;;;;;5007356;28;20062;-64
2022/06/27 06:32:09;;;;;;;2.63;1.40;;;20.40;99.90;;;;;;5008233;28;20038;-64
2022/06/27 06:34:35;;;;;;;4.10;1.60;;;20.60;99.90;;;;;;5008437;28;20041;-68
2022/06/27 06:37:02;;;;;;;3.90;2.40;;;20.70;99.90;;;;;;5007973;28;20116;-63
2022/06/27 06:39:28;;;;;;;8.52;2.50;;;20.70;99.90;;;;;;5008107;28;20041;-66
2022/06/27 06:41:54;;;;;;;5.60;2.50;;;20.50;99.90;;;;;;5069922;28;20036;-65
2022/06/27 06:44:21;;;;;;;5.53;1.73;;;20.50;99.90;;;;;;5111788;28;20126;-64
2022/06/27 06:46:47;;;;;;;2.38;1.60;;;20.50;99.90;;;;;;5110905;28;20030;-65
2022/06/27 06:49:13;;;;;;;4.45;1.45;;;20.60;99.90;;;;;;5108041;28;20036;-64
2022/06/27 06:51:42;;;;;;;5.68;1.50;;;20.60;99.90;;;;;;5008851;28;20037;-67
2022/06/27 06:54:12;;;;;;;3.90;1.60;;;20.50;99.90;;;;;;4999303;28;20034;-65
2022/06/27 06:56:39;;;;;;;2.60;1.10;;;20.50;99.90;;;;;;5007051;28;20026;-66
2022/06/27 06:59:05;;;;;;;3.58;1.35;;;20.50;99.90;;;;;;5016719;28;20051;-64
2022/06/27 07:01:35;;;;;;;2.90;1.10;;;20.60;99.90;;;;;;5047461;28;20068;-65
2022/06/27 07:04:02;;;;;;;6.72;1.92;;;20.80;99.90;;;;;;5007160;28;20026;-65
2022/06/27 07:06:29;;;;;;;2.28;1.40;;;20.80;99.90;;;;;;5007718;28;20033;-64
2022/06/27 07:08:57;;;;;;;1.70;1.00;;;20.60;99.90;;;;;;5006914;28;20085;-65
2022/06/27 07:11:28;;;;;;;5.10;1.20;;;20.40;99.90;;;;;;5007300;28;20672;-64
2022/06/27 07:13:55;;;;;;;3.90;1.13;;;20.30;99.90;;;;;;4997894;28;20995;-64
2022/06/27 07:16:21;;;;;;;2.05;1.10;;;20.30;99.90;;;;;;5006871;28;20386;-64
2022/06/27 07:18:48;;;;;;;2.42;1.42;;;20.30;99.90;;;;;;5018979;28;20118;-63
2022/06/27 07:21:18;;;;;;;2.33;1.40;;;20.30;99.90;;;;;;5002724;28;20040;-64
2022/06/27 07:23:48;;;;;;;;;;;20.20;99.90;;;;;;5005899;28;20468;-64
2022/06/27 07:26:14;;;;;;;2.85;0.93;;;20.20;99.90;;;;;;5030842;28;19904;-64
2022/06/27 07:28:41;;;;;;;1.40;0.80;;;20.20;99.90;;;;;;5057621;28;20185;-65
2022/06/27 07:31:12;;;;;;;4.45;1.30;;;20.30;99.90;;;;;;5006874;28;20143;-63
2022/06/27 07:33:43;;;;;;;2.70;1.10;;;20.50;99.90;;;;;;5007759;28;20030;-65
2022/06/27 07:36:14;;;;;;;;;;;20.70;99.90;;;;;;5019250;28;20037;-64
2022/06/27 07:38:41;;;;;;;1.40;0.90;;;21.00;99.90;;;;;;5006414;28;20012;-66
2022/06/27 07:41:11;;;;;;;4.32;1.10;;;21.00;99.90;;;;;;5007138;28;20034;-64
2022/06/27 07:43:37;;;;;;;3.00;1.40;;;20.90;99.90;;;;;;5075148;28;20036;-65
2022/06/27 07:46:05;;;;;;;3.72;1.08;;;20.90;99.90;;;;;;5109914;28;20718;-63
2022/06/27 07:48:31;;;;;;;3.42;1.17;;;20.90;99.90;;;;;;5110548;28;20091;-64
2022/06/27 07:50:57;;;;;;;2.38;1.27;;;20.80;99.90;;;;;;5101054;28;20030;-64
2022/06/27 07:53:25;;;;;;;3.90;1.08;;;20.90;99.90;;;;;;5102423;28;20027;-64
2022/06/27 07:55:54;;;;;;;2.45;1.17;;;21.20;99.90;;;;;;5060150;28;20041;-64
2022/06/27 07:58:30;;;;;;;3.47;1.20;;;21.10;99.90;;;;;;5006906;28;20137;-64
2022/06/27 08:00:57;;;;;;;2.75;1.30;;;21.10;99.90;;;;;;5006396;28;20041;-64
2022/06/27 08:03:42;;;;;;;5.28;1.52;;;21.10;99.90;;;;;;5007249;28;20049;-63
2022/06/27 08:06:20;;;;;;;2.78;1.30;;;21.10;99.90;;;;;;5007322;28;20513;-64
2022/06/27 08:08:55;;;;;;;3.65;1.60;;;20.80;99.90;;;;;;5005768;28;20506;-63
2022/06/27 08:11:26;;;;;;;2.17;1.30;;;20.60;99.90;;;;;;5075955;28;20371;-64
2022/06/27 08:13:54;;;;;;;3.35;1.50;;;20.50;99.90;;;;;;5109151;28;20103;-64
2022/06/27 08:16:22;;;;;;;4.07;1.35;;;20.40;99.90;;;;;;5091246;28;20411;-63
2022/06/27 08:18:50;;;;;;;2.58;1.40;;;20.50;99.90;;;;;;5108907;28;20028;-64
2022/06/27 08:21:20;;;;;;;4.40;1.38;;;20.60;99.90;;;;;;5109626;28;20045;-64
2022/06/27 08:23:48;;;;;;;4.88;1.42;;;20.80;99.90;;;;;;5109239;28;20070;-64
2022/06/27 08:26:14;;;;;;;1.50;1.25;;;20.90;99.90;;;;;;5101845;28;20111;-63
2022/06/27 08:28:41;;;;;;;4.40;1.60;;;21.00;99.90;;;;;;5094334;28;20047;-65
2022/06/27 08:31:10;;;;;;;3.38;1.30;;;21.10;99.90;;;;;;5109132;28;20357;-63
2022/06/27 08:33:37;;;;;;;2.63;1.50;;;21.30;99.90;;;;;;5109510;28;20070;-64
2022/06/27 08:36:03;;;;;;;9.57;2.55;;;21.40;99.90;;;;;;5108289;28;20030;-64
2022/06/27 08:38:32;;;;;;;3.85;2.15;;;21.50;99.90;;;;;;5109841;28;20027;-64
2022/06/27 08:40:58;;;;;;;4.93;1.70;;;21.40;99.90;;;;;;5108723;28;20031;-64
2022/06/27 08:43:26;;;;;;;1.95;1.48;;;21.30;99.90;;;;;;5102670;28;20395;-64
2022/06/27 08:45:53;;;;;;;5.40;1.85;;;21.40;99.90;;;;;;5088486;28;20557;-65
2022/06/27 08:48:19;;;;;;;3.42;1.65;;;21.90;99.90;;;;;;5109079;28;20467;-64
2022/06/27 08:50:48;;;;;;;3.88;1.27;;;22.00;99.90;;;;;;5108072;28;20027;-65
2022/06/27 08:53:15;;;;;;;4.03;1.40;;;21.90;99.90;;;;;;5109467;28;20108;-64
2022/06/27 08:55:48;;;;;;;2.80;1.35;;;21.60;99.90;;;;;;5109197;28;20028;-64
2022/06/27 08:58:15;;;;;;;7.35;2.50;;;21.50;99.90;;;;;;5101636;28;20617;-63
2022/06/27 09:00:45;;;;;;;2.35;1.58;;;21.60;99.90;;;;;;5006118;28;20123;-63
2022/06/27 09:03:18;;;;;;;2.00;1.40;;;21.50;99.90;;;;;;5006145;28;20033;-64
2022/06/27 09:05:57;;;;;;;4.07;1.35;;;21.60;99.90;;;;;;5074961;28;20027;-66
2022/06/27 09:08:25;;;;;;;3.20;1.42;;;21.50;99.90;;;;;;5108815;28;20077;-64
2022/06/27 09:10:53;;;;;;;1.30;1.20;;;21.60;99.90;;;;;;5107989;28;20629;-64
2022/06/27 09:13:20;;;;;;;2.22;1.30;;;22.00;99.90;;;;;;5108790;28;20084;-64
2022/06/27 09:15:56;;;;;;;4.57;1.20;;;22.30;99.90;;;;;;5013071;28;20030;-65
2022/06/27 09:18:25;;;;;;;5.30;1.35;;;22.30;99.90;;;;;;5006021;28;20105;-63
2022/06/27 09:21:02;;;;;;;2.45;1.15;;;22.30;99.90;;;;;;5004618;28;20533;-64
2022/06/27 09:23:45;;;;;;;5.28;1.45;;;22.20;99.90;;;;;;5005785;28;20143;-63
2022/06/27 09:26:47;;;;;;;2.25;1.50;;;22.10;99.90;;;;;;5020034;28;20107;-64
2022/06/27 09:29:14;;;;;;;2.85;1.23;;;22.10;99.90;;;;;;4947438;28;20031;-64
2022/06/27 09:31:48;;;;;;;3.75;1.38;;;22.10;99.90;;;;;;4997406;28;20050;-64
2022/06/27 09:34:18;;;;;;;5.35;1.50;;;22.30;99.90;;;;;;5005059;28;20033;-64
2022/06/27 09:36:49;;;;;;;3.20;1.73;;;22.30;99.90;;;;;;5005534;28;20045;-65
2022/06/27 09:39:16;;;;;;;;;;;22.40;99.90;;;;;;5005980;28;20046;-65
2022/06/27 09:41:45;;;;;;;1.92;1.50;;;22.30;99.90;;;;;;5005120;28;19912;-64
2022/06/27 09:44:16;;;;;;;5.07;1.70;;;22.40;99.90;;;;;;5107836;28;20035;-63
2022/06/27 09:46:47;;;;;;;2.85;1.90;;;22.50;99.90;;;;;;5108407;28;20536;-63
2022/06/27 09:49:14;;;;;;;4.35;2.72;;;22.60;99.90;;;;;;5104558;28;20020;-64
2022/06/27 09:51:40;;;;;;;3.85;2.80;;;22.40;99.90;;;;;;5105237;28;20038;-64
2022/06/27 09:54:11;;;;;;;4.38;2.53;;;22.10;99.90;;;;;;5107772;28;20032;-63
2022/06/27 09:56:42;;;;;;;7.13;2.70;;;21.60;99.90;;;;;;5108497;28;20027;-63
2022/06/27 09:59:10;;;;;;;7.88;3.25;;;21.40;99.90;;;;;;5107834;28;20223;-64
2022/06/27 10:01:37;;;;;;;6.38;4.10;;;21.60;99.90;;;;;;5108736;28;20057;-64
2022/06/27 10:04:04;;;;;;;7.20;4.63;;;21.70;99.90;;;;;;5085679;28;20643;-63
2022/06/27 10:06:31;;;;;;;5.25;4.22;;;21.60;99.90;;;;;;5026175;28;20034;-63
2022/06/27 10:08:58;;;;;;;6.97;5.38;;;21.60;99.90;;;;;;5111733;28;20059;-63
2022/06/27 10:11:24;;;;;;;8.57;5.47;;;21.60;99.90;;;;;;5112298;28;20027;-64
2022/06/27 10:14:20;;;;;;;5.40;4.65;;;21.50;99.90;;;;;;5111904;28;20032;-66
2022/06/27 10:16:54;;;;;;;6.65;5.50;;;21.60;99.90;;;;;;5112124;28;20527;-63
2022/06/27 10:19:22;;;;;;;8.98;5.97;;;21.90;99.90;;;;;;5112259;28;20040;-64
2022/06/27 10:21:49;;;;;;;8.27;6.45;;;22.10;99.90;;;;;;5103770;28;20376;-66
2022/06/27 10:24:24;;;;;;;7.47;5.97;;;22.20;99.90;;;;;;5111803;28;20042;-64
2022/06/27 10:26:55;;;;;;;7.28;5.22;;;22.20;99.90;;;;;;5111847;28;20043;-65
2022/06/27 10:29:27;;;;;;;8.93;6.57;;;22.00;99.90;;;;;;5112203;28;20046;-64
2022/06/27 10:31:53;;;;;;;8.52;6.28;;;21.60;99.90;;;;;;5111324;28;20043;-64
2022/06/27 10:34:39;;;;;;;7.10;5.93;;;21.40;99.90;;;;;;5112068;28;20110;-63
2022/06/27 10:37:26;;;;;;;8.45;6.03;;;21.50;99.90;;;;;;5101475;28;20483;-64
2022/06/27 10:39:53;;;;;;;5.50;4.75;;;21.50;99.90;;;;;;5111353;28;20089;-65
2022/06/27 10:42:48;;;;;;;6.18;4.97;;;21.60;99.90;;;;;;5111983;28;20027;-63
2022/06/27 10:45:19;;;;;;;7.07;5.10;;;21.70;99.90;;;;;;5102986;28;20057;-64
2022/06/27 10:47:45;;;;;;;6.05;5.10;;;21.70;99.90;;;;;;5111864;28;20102;-63
2022/06/27 10:50:13;;;;;;;6.40;4.88;;;21.60;99.90;;;;;;5110703;28;20123;-63
2022/06/27 10:52:38;;;;;;;6.53;5.53;;;21.50;99.90;;;;;;5111691;28;20024;-63
2022/06/27 10:55:27;;;;;;;5.93;4.93;;;21.50;99.90;;;;;;5110732;28;20115;-63
2022/06/27 10:57:54;;;;;;;5.88;4.30;;;21.40;99.90;;;;;;5078382;28;20155;-65
2022/06/27 11:00:43;;;;;;;6.97;4.80;;;21.30;99.90;;;;;;5096748;28;20035;-63
2022/06/27 11:03:26;;;;;;;10.38;5.30;;;21.30;99.90;;;;;;5110562;28;20466;-63
2022/06/27 11:06:02;;;;;;;6.20;4.85;;;21.10;99.90;;;;;;5111144;28;20395;-65
2022/06/27 11:08:28;;;;;;;7.80;5.57;;;21.00;99.90;;;;;;5111171;28;20102;-62
2022/06/27 11:10:54;;;;;;;6.05;5.20;;;20.80;99.90;;;;;;5096829;28;20383;-65
2022/06/27 11:13:41;;;;;;;5.60;4.55;;;20.70;99.90;;;;;;4987673;28;20037;-63
2022/06/27 11:16:09;;;;;;;5.85;4.40;;;20.60;99.90;;;;;;5104771;28;20030;-63
2022/06/27 11:18:41;;;;;;;6.20;4.85;;;20.60;99.90;;;;;;5111110;28;20038;-63
2022/06/27 11:21:09;;;;;;;7.20;4.40;;;20.60;99.90;;;;;;5110325;28;20030;-62
2022/06/27 11:23:48;;;;;;;5.20;4.28;;;20.80;99.90;;;;;;5111006;28;20043;-63
2022/06/27 11:26:14;;;;;;;5.68;4.50;;;20.90;99.90;;;;;;5102744;28;20032;-63
2022/06/27 11:34:10;;;;;;;5.28;3.67;;;21.20;99.90;;;;;;5100433;28;20131;-63
2022/06/27 11:36:37;;;;;;;5.95;3.55;;;21.20;99.90;;;;;;5111006;28;20106;-63
2022/06/27 11:39:03;;;;;;;3.78;3.38;;;21.30;99.90;;;;;;5050009;28;20476;-62
2022/06/27 11:41:31;;;;;;;4.85;3.28;;;21.20;99.90;;;;;;5007544;28;20083;-62
2022/06/27 11:44:07;;;;;;;4.93;3.42;;;21.20;99.90;;;;;;5006723;28;20061;-64
2022/06/27 11:46:46;;;;;;;4.93;3.63;;;21.20;99.90;;;;;;5007700;28;20022;-63
2022/06/27 11:49:18;;;;;;;5.00;3.35;;;21.20;99.90;;;;;;5006879;28;20072;-63
2022/06/27 11:51:50;;;;;;;5.60;4.07;;;21.40;99.90;;;;;;5007138;28;20026;-63
2022/06/27 11:54:18;;;;;;;5.30;4.35;;;21.50;99.90;;;;;;5005664;28;20187;-64
2022/06/27 11:56:47;;;;;;;8.32;4.30;;;21.40;99.90;;;;;;5006900;28;20073;-63
2022/06/27 11:59:15;;;;;;;8.82;3.78;;;21.10;99.90;;;;;;4988792;28;20148;-63
2022/06/27 12:01:55;;;;;;;5.15;3.63;;;21.00;99.90;;;;;;5006914;28;20545;-63
2022/06/27 12:04:32;;;;;;;3.90;3.50;;;21.00;99.90;;;;;;5006898;28;20116;-63
2022/06/27 12:07:04;;;;;;;6.03;3.20;;;20.90;99.90;;;;;;5005855;28;20347;-63
2022/06/27 12:09:30;;;;;;;3.85;3.08;;;20.90;99.90;;;;;;5005911;28;20044;-63
2022/06/27 12:12:05;;;;;;;4.47;3.20;;;21.00;99.90;;;;;;5006465;28;20030;-65
2022/06/27 12:14:42;;;;;;;3.67;2.83;;;21.30;99.90;;;;;;5007118;28;20040;-63
2022/06/27 12:17:08;;;;;;;3.53;2.92;;;21.60;99.90;;;;;;5006261;28;20100;-63
2022/06/27 12:19:34;;;;;;;5.78;3.13;;;22.10;99.90;;;;;;4989279;28;20145;-64
2022/06/27 12:22:00;;;;;;;3.42;3.08;;;22.60;99.90;;;;;;5005513;28;20037;-66
2022/06/27 12:24:26;;;;;;;3.58;2.70;;;23.30;99.90;;;;;;5104623;28;20084;-64
2022/06/27 12:26:51;;;;;;;4.97;2.90;;;23.80;99.90;;;;;;5108728;28;20066;-63
2022/06/27 12:29:17;;;;;;;4.88;2.65;;;24.10;99.90;;;;;;5108697;28;20055;-63
2022/06/27 12:31:43;;;;;;;6.43;2.95;;;24.30;99.90;;;;;;5109812;28;20080;-63
2022/06/27 12:34:09;;;;;;;6.30;3.58;;;24.20;99.90;;;;;;5108980;28;20027;-63
2022/06/27 12:36:36;;;;;;;3.15;2.78;;;24.20;99.90;;;;;;5109548;28;20043;-64
2022/06/27 12:39:03;;;;;;;6.38;2.83;;;24.10;99.90;;;;;;5102426;28;20039;-63
2022/06/27 12:41:29;;;;;;;5.97;2.63;;;23.90;99.90;;;;;;5109595;28;20080;-64
2022/06/27 12:43:57;;;;;;;5.78;2.58;;;24.00;99.90;;;;;;5109448;28;20035;-65
2022/06/27 12:46:23;;;;;;;3.83;2.85;;;24.20;99.90;;;;;;5105621;28;20031;-63
2022/06/27 12:48:48;;;;;;;3.40;2.60;;;24.30;99.90;;;;;;5109335;28;20163;-63
2022/06/27 12:51:15;;;;;;;2.97;2.63;;;24.20;99.90;;;;;;5108771;28;20031;-65
2022/06/27 12:53:41;;;;;;;3.35;2.40;;;24.10;99.90;;;;;;5060229;28;20062;-63
2022/06/27 12:56:07;;;;;;;5.55;2.60;;;23.90;99.90;;;;;;5005613;28;20081;-63
2022/06/27 12:58:33;;;;;;;6.75;2.67;;;23.80;99.90;;;;;;5006138;28;20053;-64
2022/06/27 13:01:00;;;;;;;5.05;3.45;;;23.90;99.90;;;;;;5005812;28;20040;-65
2022/06/27 13:03:26;;;;;;;4.88;3.22;;;24.10;99.90;;;;;;5005977;28;20034;-64